Time;durP1;ratioP1;P1;durP2;ratioP2;P2;SDS_P1;SDS_P2;PMS_P1;PMS_P2;Temp;Humidity;BMP_temperature;BMP_pressure;BME280_temperature;BME280_humidity;BME280_pressure;Samples;Min_cycle;Max_cycle;Signal;HPM_P1;HPM_P2
2023/07/23 00:00:36;;;;;;;3.75;2.33;;;;;;;;;;5053236;28;20234;-61
2023/07/23 00:03:04;;;;;;;2.90;2.65;;;;;;;;;;5048013;28;20215;-61
2023/07/23 00:05:31;;;;;;;4.35;1.88;;;;;;;;;;5048085;28;20211;-61
2023/07/23 00:07:58;;;;;;;4.07;2.10;;;;;;;;;;5048214;28;20219;-62
2023/07/23 00:10:26;;;;;;;2.50;1.98;;;;;;;;;;5047943;28;20253;-61
2023/07/23 00:12:54;;;;;;;2.30;2.10;;;;;;;;;;5060630;28;20210;-61
2023/07/23 00:15:21;;;;;;;2.13;2.00;;;;;;;;;;5053082;28;20215;-61
2023/07/23 00:17:49;;;;;;;2.45;2.30;;;;;;;;;;5047975;28;20250;-61
2023/07/23 00:20:16;;;;;;;5.22;2.10;;;;;;;;;;5047802;28;20704;-62
2023/07/23 00:22:43;;;;;;;3.22;2.10;;;;;;;;;;5061858;28;20693;-62
2023/07/23 00:25:10;;;;;;;1.83;1.73;;;;;;;;;;5067871;28;20218;-61
2023/07/23 00:27:37;;;;;;;2.00;1.90;;;;;;;;;;5057456;28;20275;-61
2023/07/23 00:30:07;;;;;;;2.50;2.03;;;;;;;;;;5067453;28;20230;-62
2023/07/23 00:32:34;;;;;;;1.98;1.88;;;;;;;;;;5067823;28;20210;-61
2023/07/23 00:35:01;;;;;;;3.60;2.05;;;;;;;;;;5067597;28;20211;-62
2023/07/23 00:37:28;;;;;;;3.22;1.88;;;;;;;;;;5065062;28;20203;-61
2023/07/23 00:39:55;;;;;;;2.92;2.15;;;;;;;;;;5047672;28;20211;-62
2023/07/23 00:42:22;;;;;;;5.68;2.08;;;;;;;;;;5053509;28;20264;-61
2023/07/23 00:44:49;;;;;;;1.70;1.67;;;;;;;;;;5063337;28;20211;-61
2023/07/23 00:47:18;;;;;;;3.90;2.30;;;;;;;;;;5067803;28;20559;-61
2023/07/23 00:49:46;;;;;;;2.03;1.92;;;;;;;;;;5066673;28;20322;-61
2023/07/23 00:52:13;;;;;;;3.53;1.90;;;;;;;;;;5067267;28;20579;-61
2023/07/23 00:54:40;;;;;;;2.58;2.40;;;;;;;;;;5067520;28;20234;-61
2023/07/23 00:57:07;;;;;;;2.30;2.10;;;;;;;;;;5060320;28;20724;-61
2023/07/23 00:59:42;;;;;;;2.13;1.98;;;;;;;;;;5043719;28;20215;-61
2023/07/23 01:02:09;;;;;;;4.75;2.03;;;;;;;;;;5045418;28;20226;-62
2023/07/23 01:04:37;;;;;;;2.17;2.08;;;;;;;;;;5046151;28;20267;-61
2023/07/23 01:07:06;;;;;;;2.75;2.10;;;;;;;;;;5057577;28;20203;-62
2023/07/23 01:09:33;;;;;;;2.20;2.00;;;;;;;;;;5062176;28;20227;-61
2023/07/23 01:12:00;;;;;;;7.43;1.85;;;;;;;;;;5053570;28;20218;-61
2023/07/23 01:14:28;;;;;;;1.98;1.92;;;;;;;;;;5051119;28;20257;-61
2023/07/23 01:16:55;;;;;;;2.55;1.88;;;;;;;;;;5067048;28;20231;-61
2023/07/23 01:19:26;;;;;;;1.88;1.77;;;;;;;;;;5067017;28;20202;-61
2023/07/23 01:21:55;;;;;;;2.65;2.30;;;;;;;;;;5067382;28;20748;-61
2023/07/23 01:24:22;;;;;;;2.30;2.10;;;;;;;;;;5066881;28;20658;-60
2023/07/23 01:26:49;;;;;;;5.60;1.90;;;;;;;;;;5067274;28;20321;-61
2023/07/23 01:29:16;;;;;;;3.20;2.72;;;;;;;;;;5066550;28;20229;-61
2023/07/23 01:31:43;;;;;;;2.38;2.28;;;;;;;;;;5067474;28;20203;-61
2023/07/23 01:34:11;;;;;;;2.70;2.10;;;;;;;;;;5071029;28;20215;-61
2023/07/23 01:36:38;;;;;;;4.90;2.42;;;;;;;;;;5051596;28;20379;-61
2023/07/23 01:39:06;;;;;;;3.80;2.05;;;;;;;;;;5066287;28;20215;-61
2023/07/23 01:41:33;;;;;;;2.13;2.03;;;;;;;;;;5069418;28;20211;-61
2023/07/23 01:44:00;;;;;;;2.05;1.98;;;;;;;;;;5070612;28;20772;-61
2023/07/23 01:46:27;;;;;;;2.30;2.10;;;;;;;;;;5069560;28;20736;-61
2023/07/23 01:48:54;;;;;;;4.25;2.00;;;;;;;;;;5069837;28;20242;-61
2023/07/23 01:51:21;;;;;;;4.32;2.55;;;;;;;;;;5068867;28;20303;-61
2023/07/23 01:53:48;;;;;;;3.85;2.40;;;;;;;;;;5069679;28;20218;-61
2023/07/23 01:56:17;;;;;;;3.03;2.13;;;;;;;;;;5069401;28;20641;-61
2023/07/23 01:58:44;;;;;;;2.00;1.90;;;;;;;;;;5069314;28;20829;-61
2023/07/23 02:01:11;;;;;;;2.20;2.00;;;;;;;;;;5069358;28;20210;-61
2023/07/23 02:03:38;;;;;;;4.35;2.38;;;;;;;;;;5051193;28;20211;-61
2023/07/23 02:06:05;;;;;;;1.90;1.70;;;;;;;;;;5049266;28;20220;-61
2023/07/23 02:08:38;;;;;;;2.45;2.03;;;;;;;;;;5056639;28;20553;-61
2023/07/23 02:11:06;;;;;;;2.55;2.00;;;;;;;;;;5069240;28;20757;-61
2023/07/23 02:13:34;;;;;;;4.82;2.10;;;;;;;;;;5069576;28;20218;-61
2023/07/23 02:16:02;;;;;;;2.67;2.47;;;;;;;;;;5069232;28;20214;-61
2023/07/23 02:18:29;;;;;;;2.70;2.50;;;;;;;;;;5069510;28;20274;-61
2023/07/23 02:20:56;;;;;;;2.35;2.15;;;;;;;;;;5069514;28;20207;-61
2023/07/23 02:23:23;;;;;;;2.38;2.17;;;;;;;;;;5069019;28;20260;-61
2023/07/23 02:25:51;;;;;;;2.08;1.98;;;;;;;;;;5069162;28;20215;-61
2023/07/23 02:28:18;;;;;;;4.32;2.35;;;;;;;;;;5069275;28;20774;-61
2023/07/23 02:30:46;;;;;;;2.25;2.15;;;;;;;;;;5068808;28;20660;-60
2023/07/23 02:33:13;;;;;;;2.25;2.17;;;;;;;;;;5068518;28;20211;-61
2023/07/23 02:35:40;;;;;;;2.30;2.20;;;;;;;;;;5067795;28;20211;-61
2023/07/23 02:38:07;;;;;;;2.40;2.30;;;;;;;;;;5068953;28;20211;-61
2023/07/23 02:40:35;;;;;;;2.22;2.17;;;;;;;;;;5066712;28;20685;-61
2023/07/23 02:43:02;;;;;;;2.55;2.45;;;;;;;;;;5065627;28;20219;-61
2023/07/23 02:45:29;;;;;;;2.38;2.28;;;;;;;;;;5068157;28;20207;-61
2023/07/23 02:47:58;;;;;;;2.65;2.45;;;;;;;;;;5068438;28;20246;-61
2023/07/23 02:50:25;;;;;;;2.60;2.50;;;;;;;;;;5068576;28;20223;-61
2023/07/23 02:52:52;;;;;;;3.08;2.38;;;;;;;;;;5068834;28;20306;-61
2023/07/23 02:55:20;;;;;;;3.20;2.35;;;;;;;;;;5053197;28;20295;-61
2023/07/23 02:57:47;;;;;;;2.60;2.50;;;;;;;;;;5064849;28;20206;-61
2023/07/23 03:00:14;;;;;;;2.42;2.25;;;;;;;;;;5068562;28;20210;-61
2023/07/23 03:02:41;;;;;;;3.85;2.22;;;;;;;;;;5067786;28;20272;-61
2023/07/23 03:05:10;;;;;;;3.22;2.80;;;;;;;;;;5063774;28;20226;-61
2023/07/23 03:07:37;;;;;;;2.65;2.40;;;;;;;;;;5048435;28;20261;-61
2023/07/23 03:10:04;;;;;;;2.47;2.38;;;;;;;;;;5048335;28;20231;-61
2023/07/23 03:12:32;;;;;;;3.70;2.58;;;;;;;;;;5065722;28;20294;-61
2023/07/23 03:14:59;;;;;;;2.38;2.15;;;;;;;;;;5068496;28;20207;-61
2023/07/23 03:17:27;;;;;;;3.08;2.13;;;;;;;;;;5068125;28;20234;-61
2023/07/23 03:19:54;;;;;;;2.78;2.58;;;;;;;;;;5054605;28;20203;-60
2023/07/23 03:22:22;;;;;;;2.70;2.58;;;;;;;;;;5048042;28;20212;-61
2023/07/23 03:24:49;;;;;;;2.10;2.05;;;;;;;;;;5048290;28;20273;-60
2023/07/23 03:27:16;;;;;;;2.97;2.78;;;;;;;;;;5051699;28;20272;-61
2023/07/23 03:29:43;;;;;;;2.50;2.35;;;;;;;;;;5055645;28;20231;-61
2023/07/23 03:32:10;;;;;;;3.55;2.72;;;;;;;;;;5054331;28;20219;-61
2023/07/23 03:34:37;;;;;;;2.47;2.25;;;;;;;;;;5068104;28;20207;-61
2023/07/23 03:37:04;;;;;;;2.40;2.30;;;;;;;;;;5065990;28;20268;-61
2023/07/23 03:39:33;;;;;;;2.70;2.50;;;;;;;;;;5062544;28;20211;-61
2023/07/23 03:42:00;;;;;;;3.92;2.45;;;;;;;;;;5066373;28;20218;-61
2023/07/23 03:44:27;;;;;;;2.88;2.55;;;;;;;;;;5067555;28;20237;-60
2023/07/23 03:47:03;;;;;;;2.70;2.50;;;;;;;;;;5062364;28;20670;-61
2023/07/23 03:49:30;;;;;;;2.28;2.17;;;;;;;;;;5049028;28;20298;-61
2023/07/23 03:51:58;;;;;;;2.80;2.70;;;;;;;;;;5047674;28;20530;-60
2023/07/23 03:54:25;;;;;;;2.83;2.63;;;;;;;;;;5047073;28;20295;-61
2023/07/23 03:56:54;;;;;;;2.50;2.30;;;;;;;;;;5054889;28;20771;-61
2023/07/23 03:59:21;;;;;;;2.60;2.50;;;;;;;;;;5066884;28;20207;-61
2023/07/23 04:01:48;;;;;;;4.40;2.75;;;;;;;;;;5066845;28;20199;-61
2023/07/23 04:04:15;;;;;;;3.42;2.97;;;;;;;;;;5067509;28;20546;-61
2023/07/23 04:06:42;;;;;;;3.42;2.80;;;;;;;;;;5067012;28;20223;-61
2023/07/23 04:09:09;;;;;;;3.40;2.75;;;;;;;;;;5063805;28;20208;-61
2023/07/23 04:11:36;;;;;;;3.25;2.50;;;;;;;;;;5055326;28;20240;-61
2023/07/23 04:14:04;;;;;;;4.32;2.60;;;;;;;;;;5046950;28;20215;-61
2023/07/23 04:16:31;;;;;;;3.05;2.88;;;;;;;;;;5060003;28;20235;-62
2023/07/23 04:18:58;;;;;;;2.40;2.30;;;;;;;;;;5065967;28;20213;-61
2023/07/23 04:21:26;;;;;;;5.88;2.63;;;;;;;;;;5046913;28;20302;-61
2023/07/23 04:23:55;;;;;;;2.88;2.67;;;;;;;;;;5065101;28;20632;-60
2023/07/23 04:26:22;;;;;;;3.53;2.30;;;;;;;;;;5066597;28;20759;-61
2023/07/23 04:28:50;;;;;;;2.70;2.50;;;;;;;;;;5065215;28;20203;-60
2023/07/23 04:31:18;;;;;;;3.38;2.72;;;;;;;;;;5051396;28;20312;-61
2023/07/23 04:33:45;;;;;;;2.95;2.75;;;;;;;;;;5046578;28;20249;-61
2023/07/23 04:36:13;;;;;;;3.22;2.40;;;;;;;;;;5046576;28;20211;-61
2023/07/23 04:38:40;;;;;;;2.85;2.65;;;;;;;;;;5061389;28;20877;-61
2023/07/23 04:41:08;;;;;;;2.55;2.45;;;;;;;;;;5066703;28;20203;-61
2023/07/23 04:43:36;;;;;;;2.90;2.53;;;;;;;;;;5066506;28;20321;-60
2023/07/23 04:46:04;;;;;;;2.40;2.20;;;;;;;;;;5051208;28;20212;-61
2023/07/23 04:48:32;;;;;;;3.03;2.83;;;;;;;;;;5061759;28;20234;-61
2023/07/23 04:51:00;;;;;;;2.90;2.70;;;;;;;;;;5066367;28;20227;-61
2023/07/23 04:53:27;;;;;;;3.55;2.85;;;;;;;;;;5066339;28;20214;-60
2023/07/23 04:55:54;;;;;;;3.58;2.63;;;;;;;;;;5065778;28;20685;-61
2023/07/23 04:58:22;;;;;;;2.72;2.53;;;;;;;;;;5064402;28;20207;-61
2023/07/23 05:00:49;;;;;;;3.22;2.78;;;;;;;;;;5064948;28;20670;-61
2023/07/23 05:03:16;;;;;;;2.95;2.67;;;;;;;;;;5045044;28;20323;-61
2023/07/23 05:05:46;;;;;;;4.13;2.75;;;;;;;;;;5047315;28;20234;-61
2023/07/23 05:08:13;;;;;;;2.70;2.60;;;;;;;;;;5068035;28;20657;-61
2023/07/23 05:10:40;;;;;;;3.10;2.90;;;;;;;;;;5070331;28;20688;-61
2023/07/23 05:13:07;;;;;;;2.95;2.75;;;;;;;;;;5070395;28;20211;-61
2023/07/23 05:15:34;;;;;;;6.07;2.60;;;;;;;;;;5070706;28;20590;-62
2023/07/23 05:18:01;;;;;;;2.83;2.63;;;;;;;;;;5064303;28;20709;-61
2023/07/23 05:20:29;;;;;;;2.60;2.45;;;;;;;;;;5060674;28;20195;-61
2023/07/23 05:22:57;;;;;;;3.08;2.85;;;;;;;;;;5050442;28;20705;-61
2023/07/23 05:25:24;;;;;;;2.92;2.72;;;;;;;;;;5050502;28;20293;-61
2023/07/23 05:27:52;;;;;;;3.20;3.00;;;;;;;;;;5063569;28;20230;-61
2023/07/23 05:30:20;;;;;;;3.33;3.03;;;;;;;;;;5050120;28;20666;-61
2023/07/23 05:32:47;;;;;;;2.65;2.55;;;;;;;;;;5050140;28;20346;-61
2023/07/23 05:35:14;;;;;;;3.97;2.58;;;;;;;;;;5050348;28;20214;-61
2023/07/23 05:37:44;;;;;;;2.85;2.65;;;;;;;;;;5065670;28;20218;-61
2023/07/23 05:40:13;;;;;;;2.80;2.60;;;;;;;;;;5070058;28;20215;-61
2023/07/23 05:42:40;;;;;;;2.72;2.63;;;;;;;;;;5049651;28;20299;-61
2023/07/23 05:45:07;;;;;;;3.22;2.95;;;;;;;;;;5050020;28;20220;-61
2023/07/23 05:47:34;;;;;;;3.10;2.83;;;;;;;;;;5061648;28;20795;-61
2023/07/23 05:50:01;;;;;;;2.72;2.53;;;;;;;;;;5069733;28;20207;-62
2023/07/23 05:52:28;;;;;;;4.20;2.58;;;;;;;;;;5069909;28;20218;-61
2023/07/23 05:54:55;;;;;;;2.60;2.50;;;;;;;;;;5070002;28;20238;-61
2023/07/23 05:57:24;;;;;;;3.97;2.60;;;;;;;;;;5068874;28;20203;-61
2023/07/23 05:59:51;;;;;;;2.97;2.80;;;;;;;;;;5069520;28;20716;-60
2023/07/23 06:02:18;;;;;;;2.55;2.45;;;;;;;;;;5068692;28;20282;-61
2023/07/23 06:04:45;;;;;;;3.08;2.65;;;;;;;;;;5069302;28;20218;-61
2023/07/23 06:07:12;;;;;;;2.45;2.35;;;;;;;;;;5069608;28;20626;-61
2023/07/23 06:09:39;;;;;;;3.13;2.92;;;;;;;;;;5054548;28;20257;-61
2023/07/23 06:12:06;;;;;;;3.25;2.67;;;;;;;;;;5064801;28;20222;-62
2023/07/23 06:14:35;;;;;;;2.85;2.45;;;;;;;;;;5065630;28;20203;-61
2023/07/23 06:17:02;;;;;;;2.70;2.60;;;;;;;;;;5048463;28;20244;-62
2023/07/23 06:19:29;;;;;;;2.40;2.30;;;;;;;;;;5064373;28;20618;-62
2023/07/23 06:21:56;;;;;;;2.67;2.47;;;;;;;;;;5065472;28;20211;-62
2023/07/23 06:24:23;;;;;;;3.42;2.10;;;;;;;;;;5048084;28;20306;-62
2023/07/23 06:26:50;;;;;;;2.00;1.90;;;;;;;;;;5060524;28;20288;-63
2023/07/23 06:29:17;;;;;;;2.13;2.03;;;;;;;;;;5065837;28;20195;-63
2023/07/23 06:31:45;;;;;;;2.20;2.00;;;;;;;;;;5059005;28;20226;-63
2023/07/23 06:34:12;;;;;;;2.13;1.90;;;;;;;;;;5045982;28;20681;-64
2023/07/23 06:36:39;;;;;;;2.05;1.95;;;;;;;;;;5057166;28;20229;-63
2023/07/23 06:39:06;;;;;;;1.50;1.50;;;;;;;;;;5048933;28;20650;-63
2023/07/23 06:41:33;;;;;;;1.80;1.70;;;;;;;;;;5067223;28;20207;-62
2023/07/23 06:44:01;;;;;;;2.17;2.08;;;;;;;;;;5068674;28;20366;-63
2023/07/23 06:46:28;;;;;;;1.90;1.80;;;;;;;;;;5062987;28;20203;-63
2023/07/23 06:48:56;;;;;;;1.67;1.67;;;;;;;;;;5048895;28;20211;-62
2023/07/23 06:51:25;;;;;;;1.73;1.70;;;;;;;;;;5050244;28;20736;-63
2023/07/23 06:53:52;;;;;;;1.85;1.85;;;;;;;;;;5057227;28;20264;-63
2023/07/23 06:56:20;;;;;;;3.13;1.50;;;;;;;;;;5068766;28;20218;-62
2023/07/23 06:58:47;;;;;;;1.80;1.70;;;;;;;;;;5053090;28;20677;-62
2023/07/23 07:01:14;;;;;;;1.27;1.27;;;;;;;;;;5048696;28;20204;-60
2023/07/23 07:03:41;;;;;;;1.50;1.50;;;;;;;;;;5066742;28;20202;-62
2023/07/23 07:06:09;;;;;;;1.85;1.63;;;;;;;;;;5067405;28;20200;-62
2023/07/23 07:08:36;;;;;;;1.27;1.27;;;;;;;;;;5064051;28;20202;-62
2023/07/23 07:11:09;;;;;;;1.50;1.42;;;;;;;;;;5059010;28;20588;-61
2023/07/23 07:13:37;;;;;;;1.75;1.65;;;;;;;;;;5053292;28;20211;-62
2023/07/23 07:16:04;;;;;;;3.50;1.38;;;;;;;;;;5059965;28;20226;-61
2023/07/23 07:18:31;;;;;;;1.45;1.42;;;;;;;;;;5067722;28;20284;-62
2023/07/23 07:20:58;;;;;;;1.30;1.30;;;;;;;;;;5058379;28;20713;-62
2023/07/23 07:23:27;;;;;;;1.40;1.40;;;;;;;;;;5064204;28;20688;-63
2023/07/23 07:25:56;;;;;;;1.52;1.42;;;;;;;;;;5056321;28;20199;-63
2023/07/23 07:28:23;;;;;;;2.67;1.20;;;;;;;;;;5057333;28;20235;-63
2023/07/23 07:30:50;;;;;;;2.80;1.05;;;;;;;;;;5052234;28;20676;-60
2023/07/23 07:33:17;;;;;;;1.85;1.25;;;;;;;;;;5051784;28;20195;-61
2023/07/23 07:35:44;;;;;;;1.60;1.60;;;;;;;;;;5046858;28;20325;-60
2023/07/23 07:38:11;;;;;;;8.18;1.23;;;;;;;;;;5061149;28;20234;-63
2023/07/23 07:40:41;;;;;;;1.27;0.98;;;;;;;;;;5047433;28;20271;-64
2023/07/23 07:43:08;;;;;;;1.15;1.02;;;;;;;;;;5056515;28;20231;-62
2023/07/23 07:45:35;;;;;;;1.13;1.13;;;;;;;;;;5054279;28;20309;-59
2023/07/23 07:48:02;;;;;;;1.70;1.15;;;;;;;;;;5063977;28;20214;-59
2023/07/23 07:50:29;;;;;;;1.35;1.35;;;;;;;;;;5064490;28;20717;-61
2023/07/23 07:52:56;;;;;;;1.13;1.13;;;;;;;;;;5046528;28;20239;-61
2023/07/23 07:55:23;;;;;;;1.38;1.13;;;;;;;;;;5062628;28;20272;-62
2023/07/23 07:57:52;;;;;;;1.58;1.33;;;;;;;;;;5045629;28;20216;-61
2023/07/23 08:00:20;;;;;;;1.02;0.90;;;;;;;;;;5051775;28;20209;-64
2023/07/23 08:02:47;;;;;;;1.00;1.00;;;;;;;;;;5065150;28;20207;-64
2023/07/23 08:05:15;;;;;;;1.05;1.05;;;;;;;;;;5062010;28;20305;-64
2023/07/23 08:07:43;;;;;;;0.80;0.80;;;;;;;;;;5045335;28;20234;-63
2023/07/23 08:10:11;;;;;;;1.00;1.00;;;;;;;;;;5046975;28;20257;-63
2023/07/23 08:12:38;;;;;;;1.00;1.00;;;;;;;;;;5046382;28;20219;-64
2023/07/23 08:15:08;;;;;;;1.38;1.02;;;;;;;;;;5065044;28;20211;-63
2023/07/23 08:17:35;;;;;;;1.20;1.20;;;;;;;;;;5062063;28;20346;-63
2023/07/23 08:20:03;;;;;;;1.20;1.20;;;;;;;;;;5044750;28;20204;-63
2023/07/23 08:22:30;;;;;;;1.02;1.02;;;;;;;;;;5051461;28;20932;-63
2023/07/23 08:24:58;;;;;;;1.38;1.10;;;;;;;;;;5050341;28;20203;-63
2023/07/23 08:27:26;;;;;;;1.17;1.17;;;;;;;;;;5057047;28;20207;-63
2023/07/23 08:29:53;;;;;;;0.90;0.90;;;;;;;;;;5045821;28;20207;-63
2023/07/23 08:32:23;;;;;;;1.08;1.08;;;;;;;;;;5048603;28;20464;-63
2023/07/23 08:34:51;;;;;;;1.13;1.13;;;;;;;;;;5065532;28;20214;-63
2023/07/23 08:37:18;;;;;;;0.95;0.95;;;;;;;;;;5061762;28;20203;-63
2023/07/23 08:39:45;;;;;;;0.90;0.90;;;;;;;;;;5050807;28;20208;-63
2023/07/23 08:42:25;;;;;;;1.10;1.10;;;;;;;;;;5056423;28;20198;-64
2023/07/23 08:45:02;;;;;;;0.73;0.73;;;;;;;;;;5052158;28;20199;-62
2023/07/23 08:47:31;;;;;;;3.20;0.80;;;;;;;;;;5061445;28;20199;-63
2023/07/23 08:50:00;;;;;;;0.80;0.80;;;;;;;;;;5051938;28;20203;-62
2023/07/23 08:52:28;;;;;;;0.70;0.70;;;;;;;;;;5044547;28;20722;-62
2023/07/23 08:54:57;;;;;;;0.93;0.93;;;;;;;;;;5064978;28;20215;-63
2023/07/23 08:57:24;;;;;;;0.95;0.95;;;;;;;;;;5046724;28;20658;-62
2023/07/23 08:59:52;;;;;;;0.80;0.80;;;;;;;;;;5066694;28;20225;-63
2023/07/23 09:02:20;;;;;;;0.75;0.70;;;;;;;;;;5064295;28;20206;-66
2023/07/23 09:04:51;;;;;;;1.02;1.02;;;;;;;;;;5057908;28;20211;-63
2023/07/23 09:07:18;;;;;;;0.95;0.95;;;;;;;;;;5047857;28;20229;-64
2023/07/23 09:09:48;;;;;;;1.05;0.88;;;;;;;;;;5054933;28;20218;-63
2023/07/23 09:12:15;;;;;;;0.95;0.95;;;;;;;;;;5062215;28;20773;-64
2023/07/23 09:14:43;;;;;;;1.23;1.20;;;;;;;;;;5055067;28;20222;-63
2023/07/23 09:17:17;;;;;;;0.73;0.73;;;;;;;;;;5063442;28;20259;-62
2023/07/23 09:19:44;;;;;;;1.17;0.80;;;;;;;;;;5059575;28;20386;-63
2023/07/23 09:22:12;;;;;;;0.98;0.82;;;;;;;;;;5044200;28;20203;-63
2023/07/23 09:24:39;;;;;;;0.70;0.70;;;;;;;;;;5057215;28;20207;-61
2023/07/23 09:27:10;;;;;;;0.80;0.80;;;;;;;;;;5062270;28;20214;-59
2023/07/23 09:29:38;;;;;;;5.78;0.75;;;;;;;;;;5060449;28;20264;-63
2023/07/23 09:32:05;;;;;;;0.90;0.90;;;;;;;;;;5058715;28;20238;-64
2023/07/23 09:34:34;;;;;;;0.70;0.70;;;;;;;;;;5065076;28;20249;-65
2023/07/23 09:37:01;;;;;;;0.60;0.60;;;;;;;;;;5061412;28;20290;-67
2023/07/23 09:39:33;;;;;;;0.65;0.65;;;;;;;;;;5060782;28;20207;-63
2023/07/23 09:42:03;;;;;;;0.80;0.80;;;;;;;;;;5061718;28;20304;-61
2023/07/23 09:44:30;;;;;;;0.93;0.93;;;;;;;;;;5056064;28;20227;-63
2023/07/23 09:46:59;;;;;;;0.85;0.85;;;;;;;;;;5047723;28;20669;-65
2023/07/23 09:49:29;;;;;;;1.15;0.90;;;;;;;;;;5058551;28;20347;-63
2023/07/23 09:51:56;;;;;;;0.73;0.73;;;;;;;;;;5047683;28;20678;-64
2023/07/23 09:54:23;;;;;;;1.75;0.70;;;;;;;;;;5056414;28;20202;-64
2023/07/23 09:56:53;;;;;;;0.70;0.70;;;;;;;;;;5063628;28;20593;-65
2023/07/23 09:59:20;;;;;;;0.80;0.80;;;;;;;;;;5052577;28;20238;-65
2023/07/23 10:01:48;;;;;;;0.75;0.75;;;;;;;;;;5047170;28;20290;-64
2023/07/23 10:04:17;;;;;;;0.80;0.80;;;;;;;;;;5047141;28;20215;-64
2023/07/23 10:06:44;;;;;;;1.27;1.27;;;;;;;;;;5052125;28;20840;-63
2023/07/23 10:09:13;;;;;;;0.95;0.73;;;;;;;;;;5062481;28;20298;-61
2023/07/23 10:11:40;;;;;;;0.70;0.70;;;;;;;;;;5061876;28;20211;-62
2023/07/23 10:14:08;;;;;;;2.30;1.70;;;;;;;;;;5054137;28;20211;-63
2023/07/23 10:16:38;;;;;;;53.58;24.08;;;;;;;;;;5059692;28;20231;-62
2023/07/23 10:19:06;;;;;;;168.25;70.90;;;;;;;;;;5058786;28;20280;-62
2023/07/23 10:21:34;;;;;;;80.05;37.53;;;;;;;;;;5053738;28;20204;-63
2023/07/23 10:24:02;;;;;;;25.10;17.98;;;;;;;;;;5048448;28;20211;-63
2023/07/23 10:26:29;;;;;;;61.70;26.73;;;;;;;;;;5050116;28;20199;-67
2023/07/23 10:28:58;;;;;;;57.05;22.55;;;;;;;;;;5067468;28;20210;-66
2023/07/23 10:31:27;;;;;;;2.40;2.15;;;;;;;;;;5045565;28;20211;-68
2023/07/23 10:33:54;;;;;;;2.38;1.55;;;;;;;;;;5047973;28;20220;-68
2023/07/23 10:36:22;;;;;;;0.80;0.80;;;;;;;;;;5048252;28;20684;-68
2023/07/23 10:39:03;;;;;;;1.65;0.70;;;;;;;;;;5048001;28;20635;-66
2023/07/23 10:41:45;;;;;;;1.05;1.00;;;;;;;;;;5052240;28;20222;-66
2023/07/23 10:44:20;;;;;;;0.95;0.95;;;;;;;;;;5047813;28;20219;-67
2023/07/23 10:46:49;;;;;;;0.70;0.50;;;;;;;;;;5068863;28;20555;-68
2023/07/23 10:49:21;;;;;;;0.98;0.75;;;;;;;;;;5065811;28;20203;-64
2023/07/23 10:51:50;;;;;;;0.70;0.70;;;;;;;;;;5057573;28;20211;-67
2023/07/23 10:54:17;;;;;;;0.70;0.70;;;;;;;;;;5050755;28;20195;-68
2023/07/23 10:56:44;;;;;;;0.70;0.70;;;;;;;;;;5055251;28;20210;-66
2023/07/23 10:59:14;;;;;;;0.90;0.77;;;;;;;;;;5056383;28;20563;-65
2023/07/23 11:01:42;;;;;;;4.13;0.80;;;;;;;;;;5061864;28;20876;-66
2023/07/23 11:04:11;;;;;;;0.63;0.63;;;;;;;;;;5061616;28;20204;-66
2023/07/23 11:06:41;;;;;;;0.73;0.73;;;;;;;;;;5055385;28;20210;-64
2023/07/23 11:09:10;;;;;;;0.90;0.70;;;;;;;;;;5052298;28;20204;-66
2023/07/23 11:11:40;;;;;;;0.70;0.70;;;;;;;;;;5049410;28;20231;-66
2023/07/23 11:14:18;;;;;;;0.70;0.70;;;;;;;;;;5062823;28;20219;-65
2023/07/23 11:16:46;;;;;;;1.58;0.80;;;;;;;;;;5046962;28;20834;-60
2023/07/23 11:19:14;;;;;;;0.73;0.73;;;;;;;;;;5047616;28;20688;-61
2023/07/23 11:21:46;;;;;;;0.60;0.60;;;;;;;;;;5062285;28;20216;-61
2023/07/23 11:24:13;;;;;;;0.70;0.70;;;;;;;;;;5067542;28;20195;-60
2023/07/23 11:26:41;;;;;;;0.90;0.90;;;;;;;;;;5049055;28;20243;-60
2023/07/23 11:29:09;;;;;;;0.80;0.80;;;;;;;;;;5059332;28;20314;-61
2023/07/23 11:31:36;;;;;;;0.80;0.80;;;;;;;;;;5067401;28;20211;-62
2023/07/23 11:34:05;;;;;;;0.75;0.75;;;;;;;;;;5052940;28;20234;-61
2023/07/23 11:36:34;;;;;;;2.50;0.80;;;;;;;;;;5058722;28;20223;-62
2023/07/23 11:39:01;;;;;;;1.45;0.63;;;;;;;;;;5066861;28;20751;-61
2023/07/23 11:41:29;;;;;;;0.93;0.93;;;;;;;;;;5054059;28;20211;-61
2023/07/23 11:43:57;;;;;;;0.80;0.80;;;;;;;;;;5068574;28;20251;-61
2023/07/23 11:46:24;;;;;;;0.90;0.90;;;;;;;;;;5066442;28;20256;-62
2023/07/23 11:48:53;;;;;;;1.00;0.82;;;;;;;;;;5050529;28;20214;-60
2023/07/23 11:51:20;;;;;;;0.88;0.88;;;;;;;;;;5057252;28;20297;-61
2023/07/23 11:53:50;;;;;;;1.02;0.90;;;;;;;;;;5068225;28;20256;-61
2023/07/23 11:56:17;;;;;;;0.95;0.95;;;;;;;;;;5068755;28;20673;-60
2023/07/23 11:58:44;;;;;;;0.88;0.88;;;;;;;;;;5068820;28;20210;-61
2023/07/23 12:01:11;;;;;;;0.93;0.93;;;;;;;;;;5046114;28;20208;-61
2023/07/23 12:03:40;;;;;;;1.00;1.00;;;;;;;;;;5049072;28;20219;-62
2023/07/23 12:06:07;;;;;;;0.90;0.90;;;;;;;;;;5051319;28;20576;-63
2023/07/23 12:08:35;;;;;;;0.93;0.93;;;;;;;;;;5053152;28;20211;-61
2023/07/23 12:11:09;;;;;;;0.90;0.90;;;;;;;;;;5061614;28;20252;-62
2023/07/23 12:13:42;;;;;;;1.60;1.50;;;;;;;;;;5068001;28;20233;-62
2023/07/23 12:16:13;;;;;;;1.08;1.08;;;;;;;;;;5066810;28;20217;-61
2023/07/23 12:18:44;;;;;;;1.50;1.30;;;;;;;;;;5068181;28;20226;-61
2023/07/23 12:21:11;;;;;;;1.00;1.00;;;;;;;;;;5066114;28;20218;-62
2023/07/23 12:23:42;;;;;;;0.80;0.80;;;;;;;;;;5064255;28;20719;-61
2023/07/23 12:26:10;;;;;;;0.95;0.95;;;;;;;;;;5057366;28;20210;-61
2023/07/23 12:28:37;;;;;;;1.00;1.00;;;;;;;;;;5063913;28;20248;-61
2023/07/23 12:31:04;;;;;;;1.42;1.33;;;;;;;;;;5065340;28;20210;-61
2023/07/23 12:33:32;;;;;;;1.08;1.08;;;;;;;;;;5050377;28;20580;-61
2023/07/23 12:35:59;;;;;;;4.75;1.10;;;;;;;;;;5067231;28;20585;-60
2023/07/23 12:38:26;;;;;;;1.88;1.30;;;;;;;;;;5049074;28;20769;-60
2023/07/23 12:40:53;;;;;;;2.88;1.02;;;;;;;;;;5053312;28;20696;-61
2023/07/23 12:43:21;;;;;;;0.90;0.90;;;;;;;;;;5063674;28;20219;-60
2023/07/23 12:45:48;;;;;;;1.00;1.00;;;;;;;;;;5067051;28;20248;-60
2023/07/23 12:48:15;;;;;;;3.42;1.05;;;;;;;;;;5067245;28;20207;-60
2023/07/23 12:50:42;;;;;;;1.20;1.10;;;;;;;;;;5065674;28;20672;-61
2023/07/23 12:53:09;;;;;;;1.17;1.17;;;;;;;;;;5060513;28;20231;-60
2023/07/23 12:55:36;;;;;;;2.58;1.30;;;;;;;;;;5066164;28;20312;-61
2023/07/23 12:58:03;;;;;;;1.77;1.25;;;;;;;;;;5052446;28;20503;-61
2023/07/23 13:00:33;;;;;;;2.25;0.85;;;;;;;;;;5063925;28;20215;-61
2023/07/23 13:03:00;;;;;;;1.15;1.05;;;;;;;;;;5066145;28;20203;-60
2023/07/23 13:05:27;;;;;;;1.27;1.27;;;;;;;;;;5064731;28;20203;-61
2023/07/23 13:07:54;;;;;;;1.38;1.27;;;;;;;;;;5046633;28;20215;-61
2023/07/23 13:10:21;;;;;;;1.08;1.00;;;;;;;;;;5051747;28;20215;-62
2023/07/23 13:12:48;;;;;;;1.10;1.10;;;;;;;;;;5063899;28;20281;-62
2023/07/23 13:15:15;;;;;;;1.10;1.10;;;;;;;;;;5051016;28;20294;-61
2023/07/23 13:17:44;;;;;;;1.10;1.10;;;;;;;;;;5062480;28;20258;-61
2023/07/23 13:20:12;;;;;;;1.10;1.10;;;;;;;;;;5060186;28;20207;-61
2023/07/23 13:22:41;;;;;;;1.15;1.15;;;;;;;;;;5063034;28;20231;-61
2023/07/23 13:25:09;;;;;;;1.50;1.40;;;;;;;;;;5059769;28;20252;-61
2023/07/23 13:27:36;;;;;;;1.00;1.00;;;;;;;;;;5067859;28;20560;-60
2023/07/23 13:30:03;;;;;;;1.50;1.40;;;;;;;;;;5070899;28;20202;-60
2023/07/23 13:32:30;;;;;;;2.15;1.25;;;;;;;;;;5070755;28;20199;-60
2023/07/23 13:34:59;;;;;;;1.35;1.10;;;;;;;;;;5070610;28;20219;-61
2023/07/23 13:37:26;;;;;;;1.20;1.20;;;;;;;;;;5071089;28;20215;-60
2023/07/23 13:39:53;;;;;;;1.23;1.23;;;;;;;;;;5070744;28;20661;-60
2023/07/23 13:42:21;;;;;;;1.67;1.48;;;;;;;;;;5060102;28;20211;-60
2023/07/23 13:44:48;;;;;;;1.10;1.10;;;;;;;;;;5071092;28;20206;-59
2023/07/23 13:47:15;;;;;;;1.20;1.20;;;;;;;;;;5069604;28;20218;-60
2023/07/23 13:49:42;;;;;;;1.38;1.30;;;;;;;;;;5070065;28;20321;-61
2023/07/23 13:52:10;;;;;;;1.15;1.15;;;;;;;;;;5069038;28;20340;-61
2023/07/23 13:54:38;;;;;;;1.67;1.23;;;;;;;;;;5069353;28;20218;-61
2023/07/23 13:57:05;;;;;;;1.10;1.10;;;;;;;;;;5070128;28;20942;-60
2023/07/23 13:59:33;;;;;;;1.10;1.10;;;;;;;;;;5069786;28;20521;-60
2023/07/23 14:02:00;;;;;;;1.17;1.10;;;;;;;;;;5052914;28;20732;-62
2023/07/23 14:04:27;;;;;;;1.23;1.20;;;;;;;;;;5059890;28;20199;-63
2023/07/23 14:06:53;;;;;;;1.10;1.10;;;;;;;;;;5055743;28;20211;-63
2023/07/23 14:09:21;;;;;;;1.10;1.08;;;;;;;;;;5055340;28;20256;-62
2023/07/23 14:11:48;;;;;;;1.02;1.02;;;;;;;;;;5069669;28;20207;-62
2023/07/23 14:14:15;;;;;;;1.10;1.10;;;;;;;;;;5069884;28;20235;-66
2023/07/23 14:16:42;;;;;;;3.28;1.17;;;;;;;;;;5065745;28;20243;-62
2023/07/23 14:19:09;;;;;;;3.65;1.83;;;;;;;;;;5064410;28;20635;-62
2023/07/23 14:21:36;;;;;;;1.30;1.25;;;;;;;;;;5054776;28;20207;-63
2023/07/23 14:24:04;;;;;;;3.97;1.10;;;;;;;;;;5059345;28;20195;-62
2023/07/23 14:26:32;;;;;;;1.25;1.25;;;;;;;;;;5066621;28;20206;-62
2023/07/23 14:28:59;;;;;;;1.20;1.10;;;;;;;;;;5067389;28;20217;-63
2023/07/23 14:31:26;;;;;;;0.90;0.90;;;;;;;;;;5069326;28;20640;-62
2023/07/23 14:33:53;;;;;;;0.85;0.85;;;;;;;;;;5068943;28;20713;-62
2023/07/23 14:36:20;;;;;;;0.90;0.90;;;;;;;;;;5061438;28;20294;-62
2023/07/23 14:38:47;;;;;;;0.82;0.82;;;;;;;;;;5047545;28;20211;-63
2023/07/23 14:41:14;;;;;;;0.80;0.80;;;;;;;;;;5065771;28;20199;-62
2023/07/23 14:43:43;;;;;;;0.80;0.80;;;;;;;;;;5068874;28;20230;-62
2023/07/23 14:46:10;;;;;;;0.77;0.77;;;;;;;;;;5068176;28;20234;-62